Time;durP1;ratioP1;P1;durP2;ratioP2;P2;SDS_P1;SDS_P2;PMS_P1;PMS_P2;Temp;Humidity;BMP_temperature;BMP_pressure;BME280_temperature;BME280_humidity;BME280_pressure;Samples;Min_cycle;Max_cycle;Signal;HPM_P1;HPM_P2
2022/06/06 00:02:24;;;;;;;13.93;13.20;;;17.40;99.90;;;;;;4973191;28;20869;-72
2022/06/06 00:04:51;;;;;;;15.93;14.70;;;17.50;99.90;;;;;;4973333;28;20482;-72
2022/06/06 00:07:18;;;;;;;13.93;13.27;;;17.40;99.90;;;;;;4973095;28;20490;-73
2022/06/06 00:09:46;;;;;;;14.20;13.50;;;17.30;99.90;;;;;;4972748;28;20555;-72
2022/06/06 00:12:13;;;;;;;14.00;13.37;;;17.20;99.90;;;;;;4972902;28;20451;-72
2022/06/06 00:14:40;;;;;;;14.67;13.87;;;17.20;99.90;;;;;;4972988;28;20454;-72
2022/06/06 00:17:06;;;;;;;14.23;13.67;;;17.10;99.90;;;;;;4973106;28;20476;-73
2022/06/06 00:19:33;;;;;;;13.93;13.33;;;17.20;99.90;;;;;;4972899;28;20455;-72
2022/06/06 00:22:00;;;;;;;14.70;14.00;;;17.20;99.90;;;;;;4972784;28;20458;-72
2022/06/06 00:24:27;;;;;;;13.83;13.23;;;17.10;99.90;;;;;;4972599;28;20455;-72
2022/06/06 00:26:56;;;;;;;14.47;13.83;;;17.10;99.90;;;;;;4972788;28;20466;-73
2022/06/06 00:29:23;;;;;;;14.77;14.07;;;17.00;99.90;;;;;;4974123;28;20456;-71
2022/06/06 00:37:23;;;;;;;14.30;13.70;;;16.90;99.90;;;;;;4972597;28;20879;-72
2022/06/06 00:39:51;;;;;;;13.90;13.30;;;17.00;99.90;;;;;;4972463;28;20479;-72
2022/06/06 00:42:23;;;;;;;14.13;13.53;;;17.00;99.90;;;;;;4972412;28;20459;-71
2022/06/06 00:45:31;;;;;;;14.33;13.73;;;17.00;99.90;;;;;;4972682;28;20455;-71
2022/06/06 00:48:09;;;;;;;14.47;13.67;;;16.90;99.90;;;;;;4972362;28;20490;-72
2022/06/06 00:50:43;;;;;;;14.97;14.17;;;16.80;99.90;;;;;;4972642;28;20787;-72
2022/06/06 00:53:12;;;;;;;13.53;13.00;;;16.70;99.90;;;;;;4972477;28;20432;-72
2022/06/06 00:55:42;;;;;;;14.53;13.83;;;16.60;99.90;;;;;;4972315;28;20934;-73
2022/06/06 00:58:15;;;;;;;14.97;14.17;;;16.60;99.90;;;;;;4972252;28;20483;-73
2022/06/06 01:00:43;;;;;;;14.70;14.00;;;16.50;99.90;;;;;;4972179;28;20456;-72
2022/06/06 01:03:14;;;;;;;14.77;13.97;;;16.40;99.90;;;;;;4972210;28;20486;-73
2022/06/06 01:05:43;;;;;;;14.37;13.67;;;16.40;99.90;;;;;;4971882;28;20558;-72
2022/06/06 01:08:11;;;;;;;14.03;13.43;;;16.30;99.90;;;;;;4972096;28;20486;-72
2022/06/06 01:10:38;;;;;;;15.10;14.10;;;16.30;99.90;;;;;;4972106;28;20455;-72
2022/06/06 01:13:08;;;;;;;15.10;14.20;;;16.30;99.90;;;;;;4972387;28;20447;-72
2022/06/06 01:15:52;;;;;;;14.30;13.70;;;16.40;99.90;;;;;;4972532;28;20488;-73
2022/06/06 01:18:29;;;;;;;14.10;13.50;;;16.50;99.90;;;;;;4972473;28;20444;-72
2022/06/06 01:21:19;;;;;;;14.27;13.47;;;16.60;99.90;;;;;;4971598;28;20460;-72
2022/06/06 01:24:16;;;;;;;14.37;13.57;;;16.50;99.90;;;;;;4971873;28;20535;-72
2022/06/06 01:26:55;;;;;;;13.57;12.97;;;16.50;99.90;;;;;;4967086;28;20463;-73
2022/06/06 01:29:27;;;;;;;14.13;13.43;;;16.50;99.90;;;;;;4971857;28;21048;-72
2022/06/06 01:32:00;;;;;;;13.30;12.60;;;16.40;99.90;;;;;;4972018;28;20463;-73
2022/06/06 01:34:29;;;;;;;14.27;13.67;;;16.40;99.90;;;;;;4971894;28;20479;-72
2022/06/06 01:36:57;;;;;;;14.07;13.27;;;16.40;99.90;;;;;;4971739;28;20487;-73
2022/06/06 01:39:26;;;;;;;14.80;14.20;;;16.30;99.90;;;;;;4971630;28;20447;-72
2022/06/06 01:42:06;;;;;;;14.57;13.87;;;16.20;99.90;;;;;;4975654;28;20456;-72
2022/06/06 01:44:39;;;;;;;14.30;13.50;;;16.20;99.90;;;;;;4976051;28;20542;-72
2022/06/06 01:47:10;;;;;;;14.30;13.53;;;16.10;99.90;;;;;;4975654;28;20447;-72
2022/06/06 01:49:38;;;;;;;16.37;15.67;;;16.10;99.90;;;;;;4975802;28;20494;-72
2022/06/06 01:52:08;;;;;;;15.00;14.10;;;16.00;99.90;;;;;;4975663;28;20466;-72
2022/06/06 01:54:35;;;;;;;15.73;14.53;;;16.10;99.90;;;;;;4976193;28;20542;-71
2022/06/06 01:57:04;;;;;;;14.30;13.60;;;16.00;99.90;;;;;;4975237;28;20463;-72
2022/06/06 01:59:31;;;;;;;14.97;14.20;;;16.00;99.90;;;;;;4975548;28;20447;-72
2022/06/06 02:01:59;;;;;;;14.00;13.30;;;16.00;99.90;;;;;;4975469;28;20459;-72
2022/06/06 02:04:26;;;;;;;14.23;13.63;;;15.90;99.90;;;;;;4975356;28;20455;-71
2022/06/06 02:06:53;;;;;;;15.20;14.30;;;15.80;99.90;;;;;;4975681;28;20938;-71
2022/06/06 02:09:20;;;;;;;15.60;14.60;;;15.80;99.90;;;;;;4976130;28;20483;-71
2022/06/06 02:11:47;;;;;;;14.63;13.70;;;15.80;99.90;;;;;;4975813;28;20470;-71
2022/06/06 02:14:13;;;;;;;15.60;14.50;;;15.70;99.90;;;;;;4975287;28;20456;-71
2022/06/06 02:16:40;;;;;;;15.40;14.60;;;15.60;99.90;;;;;;4975116;28;20466;-72
2022/06/06 02:19:11;;;;;;;14.93;13.93;;;15.50;99.90;;;;;;4975374;28;20968;-71
2022/06/06 02:21:38;;;;;;;15.73;14.90;;;15.40;99.90;;;;;;4975502;28;20440;-71
2022/06/06 02:24:05;;;;;;;15.07;14.27;;;15.30;99.90;;;;;;4974959;28;20487;-71
2022/06/06 02:26:32;;;;;;;15.53;14.63;;;15.20;99.90;;;;;;4975070;28;20447;-71
2022/06/06 02:28:59;;;;;;;14.30;13.60;;;15.10;99.90;;;;;;4974855;28;20589;-71
2022/06/06 02:31:25;;;;;;;15.30;14.37;;;15.10;99.90;;;;;;4974922;28;20459;-72
2022/06/06 02:33:52;;;;;;;15.33;14.27;;;15.10;99.90;;;;;;4975094;28;20482;-71
2022/06/06 02:36:20;;;;;;;15.63;14.47;;;15.10;99.90;;;;;;4974738;28;20490;-72
2022/06/06 02:38:47;;;;;;;15.13;14.33;;;15.10;99.90;;;;;;4974900;28;20460;-72
2022/06/06 02:41:14;;;;;;;14.40;13.60;;;15.10;99.90;;;;;;4974591;28;20475;-72
2022/06/06 02:43:42;;;;;;;16.27;15.47;;;15.20;99.90;;;;;;4974914;28;20454;-72
2022/06/06 02:46:10;;;;;;;15.33;14.53;;;15.20;99.90;;;;;;4974852;28;20855;-72
2022/06/06 02:48:37;;;;;;;14.87;14.17;;;15.20;99.90;;;;;;4974864;28;20494;-72
2022/06/06 02:51:04;;;;;;;14.90;14.20;;;15.30;99.90;;;;;;4974207;28;20684;-72
2022/06/06 02:53:33;;;;;;;15.83;15.00;;;15.30;99.90;;;;;;4974833;28;20459;-72
2022/06/06 02:56:00;;;;;;;14.93;14.13;;;15.20;99.90;;;;;;4974421;28;20452;-72
2022/06/06 02:58:28;;;;;;;15.50;14.80;;;15.20;99.90;;;;;;4974265;28;20885;-72
2022/06/06 03:00:59;;;;;;;15.03;14.33;;;15.20;99.90;;;;;;4974549;28;20459;-72
2022/06/06 03:03:26;;;;;;;15.40;14.60;;;15.20;99.90;;;;;;4974252;28;20456;-72
2022/06/06 03:06:02;;;;;;;15.33;14.60;;;15.20;99.90;;;;;;4974261;28;20451;-72
2022/06/06 03:08:45;;;;;;;15.13;14.10;;;15.10;99.90;;;;;;4974351;28;20578;-72
2022/06/06 03:11:29;;;;;;;15.80;14.90;;;15.10;99.90;;;;;;4974075;28;20463;-72
2022/06/06 03:14:24;;;;;;;15.73;14.83;;;15.20;99.90;;;;;;4974103;28;20456;-72
2022/06/06 03:23:08;;;;;;;15.97;15.10;;;15.10;99.90;;;;;;4974232;28;20478;-72
2022/06/06 03:25:43;;;;;;;17.40;16.20;;;15.00;99.90;;;;;;4974025;28;20463;-72
2022/06/06 03:28:14;;;;;;;15.60;14.80;;;15.00;99.90;;;;;;4973726;28;20522;-73
2022/06/06 03:30:49;;;;;;;16.33;15.50;;;15.00;99.90;;;;;;4973770;28;21086;-74
2022/06/06 03:33:26;;;;;;;16.23;15.17;;;15.00;99.90;;;;;;4973856;28;20796;-73
2022/06/06 03:36:06;;;;;;;16.30;15.40;;;14.90;99.90;;;;;;4973224;28;20486;-74
2022/06/06 03:38:40;;;;;;;15.80;14.90;;;14.90;99.90;;;;;;4973592;28;20470;-73
2022/06/06 03:41:15;;;;;;;16.30;15.30;;;14.90;99.90;;;;;;4973613;28;20463;-72
2022/06/06 03:43:50;;;;;;;15.80;14.90;;;15.00;99.90;;;;;;4973637;28;20457;-72
2022/06/06 03:46:25;;;;;;;16.27;15.27;;;15.00;99.90;;;;;;4973614;28;20446;-72
2022/06/06 03:49:02;;;;;;;15.90;15.10;;;15.00;99.90;;;;;;4973592;28;20491;-72
2022/06/06 03:51:37;;;;;;;15.80;15.00;;;15.10;99.90;;;;;;4973170;28;21021;-71
2022/06/06 03:54:13;;;;;;;15.70;14.87;;;15.10;99.90;;;;;;4973224;28;20443;-71
2022/06/06 03:57:00;;;;;;;15.00;14.20;;;15.10;99.90;;;;;;4973331;28;20447;-72
2022/06/06 03:59:29;;;;;;;16.73;15.43;;;15.10;99.90;;;;;;4973324;28;20822;-73
2022/06/06 04:01:59;;;;;;;15.80;14.90;;;15.10;99.90;;;;;;4979309;28;20464;-73
2022/06/06 04:04:27;;;;;;;16.20;15.03;;;15.20;99.90;;;;;;4979923;28;20459;-73
2022/06/06 04:06:57;;;;;;;17.37;15.93;;;15.20;99.90;;;;;;4980065;28;20501;-73
2022/06/06 04:09:24;;;;;;;16.37;15.37;;;15.30;99.90;;;;;;4980323;28;20494;-72
2022/06/06 04:12:02;;;;;;;15.50;14.70;;;15.30;99.90;;;;;;4991179;28;20455;-73
2022/06/06 04:14:42;;;;;;;16.63;15.43;;;15.40;99.90;;;;;;4992435;28;20591;-72
2022/06/06 04:17:23;;;;;;;16.10;15.30;;;15.40;99.90;;;;;;4992994;28;20767;-71
2022/06/06 04:20:00;;;;;;;16.00;15.20;;;15.40;99.90;;;;;;4992502;28;21048;-72
2022/06/06 04:22:36;;;;;;;18.43;17.20;;;15.40;99.90;;;;;;4992127;28;20455;-72
2022/06/06 04:25:13;;;;;;;17.30;16.47;;;15.60;99.90;;;;;;4992079;28;21027;-72
2022/06/06 04:27:52;;;;;;;16.97;16.17;;;16.10;99.90;;;;;;4992407;28;20917;-72
2022/06/06 04:30:25;;;;;;;16.90;16.00;;;16.80;99.90;;;;;;4992206;28;20490;-73
2022/06/06 04:33:07;;;;;;;16.73;15.70;;;17.30;99.90;;;;;;4992246;28;20462;-73
2022/06/06 04:35:45;;;;;;;16.30;15.23;;;17.60;99.90;;;;;;4992425;28;20490;-73
2022/06/06 04:38:22;;;;;;;16.00;15.00;;;17.60;99.90;;;;;;4991602;28;20457;-74
2022/06/06 04:40:54;;;;;;;15.87;15.07;;;17.70;99.90;;;;;;4991937;28;20952;-72
2022/06/06 04:43:28;;;;;;;15.03;14.27;;;18.10;99.90;;;;;;4992218;28;20439;-72
2022/06/06 04:46:02;;;;;;;15.33;14.27;;;18.30;99.90;;;;;;4991883;28;20446;-72
2022/06/06 04:48:30;;;;;;;15.83;14.87;;;18.50;99.90;;;;;;4991429;28;20845;-74
2022/06/06 04:50:58;;;;;;;15.20;14.50;;;18.70;99.90;;;;;;4991783;28;20454;-74
2022/06/06 04:53:27;;;;;;;15.67;14.90;;;19.00;99.90;;;;;;4991494;28;20956;-74
2022/06/06 04:55:56;;;;;;;15.17;14.47;;;19.10;99.90;;;;;;4991557;28;21017;-74
2022/06/06 04:58:28;;;;;;;15.57;14.73;;;19.00;99.90;;;;;;4991500;28;20451;-73
2022/06/06 05:00:55;;;;;;;15.40;14.70;;;18.90;99.90;;;;;;4992144;28;20562;-72
2022/06/06 05:03:22;;;;;;;15.00;14.30;;;18.80;99.90;;;;;;4991708;28;20450;-71
2022/06/06 05:06:00;;;;;;;14.50;13.80;;;18.90;99.90;;;;;;4991862;28;20483;-71
2022/06/06 05:08:44;;;;;;;14.87;14.27;;;19.10;99.90;;;;;;4991035;28;20442;-71
2022/06/06 05:11:24;;;;;;;15.30;14.50;;;19.40;99.90;;;;;;4991462;28;20933;-71
2022/06/06 05:14:07;;;;;;;14.87;14.17;;;19.70;99.90;;;;;;4991452;28;20454;-71
2022/06/06 05:16:54;;;;;;;14.40;13.70;;;19.90;99.90;;;;;;4991227;28;20431;-72
2022/06/06 05:19:46;;;;;;;14.83;13.90;;;20.20;99.90;;;;;;4990378;28;20455;-73
2022/06/06 05:22:49;;;;;;;15.60;14.80;;;20.10;99.90;;;;;;4989228;28;20442;-73
2022/06/06 05:25:29;;;;;;;14.40;13.70;;;19.80;99.90;;;;;;4911635;29;20521;-72
2022/06/06 05:28:16;;;;;;;15.33;14.50;;;19.50;99.90;;;;;;4976782;28;20549;-73
2022/06/06 05:30:54;;;;;;;14.90;14.10;;;19.80;99.90;;;;;;4987037;28;20602;-73
2022/06/06 05:33:30;;;;;;;15.00;14.30;;;19.90;99.90;;;;;;4990990;28;20457;-73
2022/06/06 05:36:37;;;;;;;15.27;14.57;;;20.00;99.90;;;;;;4990464;28;20545;-73
2022/06/06 05:39:37;;;;;;;15.00;14.40;;;19.90;99.90;;;;;;4961035;28;20952;-73
2022/06/06 05:42:22;;;;;;;15.20;14.50;;;19.60;99.90;;;;;;4979673;28;20446;-72
2022/06/06 05:45:01;;;;;;;15.23;14.53;;;19.40;99.90;;;;;;4988587;28;20441;-72
2022/06/06 05:47:42;;;;;;;14.90;14.20;;;19.20;99.90;;;;;;4988361;28;20505;-73
2022/06/06 05:50:22;;;;;;;14.47;13.80;;;19.30;99.90;;;;;;4988555;28;20490;-73
2022/06/06 05:53:11;;;;;;;15.00;14.30;;;19.40;99.90;;;;;;4988610;28;20448;-72
2022/06/06 05:55:53;;;;;;;15.83;14.70;;;19.60;99.90;;;;;;4989541;28;20439;-72
2022/06/06 05:58:30;;;;;;;15.23;14.53;;;20.30;99.90;;;;;;4990057;28;20446;-72
2022/06/06 06:01:18;;;;;;;15.07;14.27;;;21.10;99.90;;;;;;4989389;28;20450;-73
2022/06/06 06:04:10;;;;;;;14.50;13.67;;;21.10;99.90;;;;;;4990416;28;20449;-74
2022/06/06 06:06:48;;;;;;;14.00;13.40;;;21.20;99.90;;;;;;4989422;28;20466;-74
2022/06/06 06:09:33;;;;;;;15.57;14.97;;;20.90;99.90;;;;;;4989624;28;20485;-74
2022/06/06 06:12:16;;;;;;;15.40;14.40;;;20.60;99.90;;;;;;4989756;28;20447;-73
2022/06/06 06:14:57;;;;;;;15.07;14.00;;;20.60;99.90;;;;;;4990468;28;20447;-73
2022/06/06 06:17:26;;;;;;;13.90;13.30;;;20.80;99.90;;;;;;4990531;28;20449;-73
2022/06/06 06:20:02;;;;;;;14.23;13.53;;;21.40;99.90;;;;;;4990695;28;20439;-75
2022/06/06 06:22:37;;;;;;;14.70;13.80;;;21.60;99.90;;;;;;4988391;28;20693;-75
2022/06/06 06:25:06;;;;;;;14.33;13.53;;;21.40;99.90;;;;;;4990411;28;20996;-74
2022/06/06 06:27:34;;;;;;;15.13;14.43;;;20.90;99.90;;;;;;4993337;28;20450;-74
2022/06/06 06:30:01;;;;;;;16.00;15.00;;;20.60;99.90;;;;;;4994163;28;20553;-71
2022/06/06 06:32:48;;;;;;;13.93;13.30;;;20.30;99.90;;;;;;4991766;28;20470;-72
2022/06/06 06:35:21;;;;;;;14.93;14.23;;;20.20;99.90;;;;;;4992586;28;20490;-72
2022/06/06 06:38:03;;;;;;;15.43;14.63;;;20.00;99.90;;;;;;4993111;28;20497;-72
2022/06/06 06:40:40;;;;;;;14.70;14.00;;;19.60;99.90;;;;;;4993746;28;20446;-74
2022/06/06 06:43:16;;;;;;;13.90;13.20;;;19.80;99.90;;;;;;4994038;28;20457;-73
2022/06/06 06:45:46;;;;;;;14.87;13.87;;;19.90;99.90;;;;;;4994029;28;20442;-73
2022/06/06 06:48:18;;;;;;;14.00;13.20;;;19.90;99.90;;;;;;4991047;28;20996;-73
2022/06/06 06:50:56;;;;;;;13.60;12.97;;;20.30;99.90;;;;;;4993860;28;20486;-73
2022/06/06 06:53:52;;;;;;;13.20;12.50;;;20.80;99.90;;;;;;4992419;28;20450;-72
2022/06/06 06:56:36;;;;;;;14.40;13.80;;;21.20;99.90;;;;;;4992064;28;20462;-72
2022/06/06 06:59:15;;;;;;;14.07;13.37;;;21.30;99.90;;;;;;4992264;28;20450;-73
2022/06/06 07:10:36;;;;;;;13.20;12.60;;;22.30;99.90;;;;;;4979454;28;20459;-73
2022/06/06 07:13:23;;;;;;;13.87;13.27;;;22.30;99.90;;;;;;4993278;28;20455;-74
2022/06/06 07:15:55;;;;;;;12.97;12.47;;;22.30;99.90;;;;;;4991112;28;20451;-73
2022/06/06 07:18:29;;;;;;;13.03;12.37;;;22.60;99.90;;;;;;4993391;28;20467;-74
2022/06/06 07:20:57;;;;;;;14.50;13.70;;;23.00;99.90;;;;;;4990989;28;20488;-71
2022/06/06 07:23:31;;;;;;;13.60;13.00;;;23.30;99.90;;;;;;4993129;28;20443;-73
2022/06/06 07:26:00;;;;;;;14.00;13.40;;;23.30;99.90;;;;;;4990737;28;20810;-76
2022/06/06 07:28:26;;;;;;;14.87;14.07;;;23.30;99.90;;;;;;4992896;28;20842;-74
2022/06/06 07:31:02;;;;;;;13.90;13.30;;;23.30;99.90;;;;;;4990749;28;20493;-74
2022/06/06 07:33:45;;;;;;;14.03;13.43;;;23.60;99.90;;;;;;4992875;28;20441;-75
2022/06/06 07:36:21;;;;;;;13.23;12.63;;;23.50;99.90;;;;;;4989683;28;20483;-74
2022/06/06 07:39:07;;;;;;;14.20;13.50;;;23.40;99.90;;;;;;4991708;28;20479;-74
2022/06/06 07:41:51;;;;;;;13.70;13.10;;;23.40;99.90;;;;;;4973795;28;20524;-74
2022/06/06 07:44:34;;;;;;;14.13;13.53;;;23.00;99.90;;;;;;4977964;28;20873;-73
2022/06/06 07:47:06;;;;;;;14.37;13.77;;;23.00;99.90;;;;;;4991442;28;20450;-72
2022/06/06 07:49:47;;;;;;;13.80;13.20;;;23.20;99.90;;;;;;4989960;28;20483;-73
2022/06/06 07:52:21;;;;;;;14.50;13.50;;;23.30;99.90;;;;;;4990383;28;20534;-74
2022/06/06 07:54:56;;;;;;;14.10;13.53;;;23.90;99.90;;;;;;4992690;28;20435;-74
2022/06/06 07:57:33;;;;;;;14.23;13.53;;;24.90;99.90;;;;;;4992584;28;20454;-74
2022/06/06 08:00:06;;;;;;;14.20;13.50;;;25.60;99.90;;;;;;4990785;28;20943;-75
2022/06/06 08:02:48;;;;;;;14.23;13.63;;;25.70;99.90;;;;;;4989874;28;20978;-76
2022/06/06 08:05:31;;;;;;;14.43;13.63;;;26.00;99.90;;;;;;4989952;28;20858;-76
2022/06/06 08:08:08;;;;;;;14.27;13.73;;;26.50;99.00;;;;;;4990442;28;20463;-75
2022/06/06 08:10:42;;;;;;;14.20;13.60;;;26.00;99.90;;;;;;4990115;28;21157;-73
2022/06/06 08:13:24;;;;;;;14.20;13.60;;;25.90;99.90;;;;;;4989286;28;20447;-74
2022/06/06 08:16:04;;;;;;;13.60;13.10;;;25.50;99.90;;;;;;4989108;28;20808;-74
2022/06/06 08:18:48;;;;;;;14.33;13.53;;;25.30;99.90;;;;;;4989390;28;20992;-74
2022/06/06 08:21:21;;;;;;;13.50;12.90;;;25.10;99.90;;;;;;4990946;28;20467;-73
2022/06/06 08:23:52;;;;;;;14.73;13.87;;;25.20;99.90;;;;;;4988789;28;20451;-73
2022/06/06 08:26:21;;;;;;;14.67;14.07;;;25.40;99.90;;;;;;4990681;28;20450;-73
2022/06/06 08:28:50;;;;;;;13.60;13.00;;;25.50;99.90;;;;;;4988468;28;20519;-73
2022/06/06 08:31:18;;;;;;;13.60;13.00;;;25.70;99.90;;;;;;4990694;28;20483;-73
2022/06/06 08:33:46;;;;;;;13.23;12.73;;;26.30;99.90;;;;;;4990685;28;20486;-74
2022/06/06 08:36:31;;;;;;;13.97;13.17;;;26.70;98.30;;;;;;4990210;28;21008;-73
2022/06/06 08:39:05;;;;;;;13.60;12.93;;;27.10;95.90;;;;;;4989694;28;20938;-73
2022/06/06 08:41:58;;;;;;;13.27;12.70;;;27.70;95.20;;;;;;4988450;28;20443;-76
2022/06/06 08:44:30;;;;;;;13.90;13.00;;;28.70;91.70;;;;;;4990267;28;20451;-76
2022/06/06 08:47:14;;;;;;;13.10;12.60;;;28.70;90.30;;;;;;4990712;28;20449;-75
2022/06/06 08:53:08;;;;;;;13.07;12.47;;;27.50;91.20;;;;;;4988975;28;20435;-75
2022/06/06 08:55:52;;;;;;;13.73;13.10;;;26.90;91.40;;;;;;4941920;28;20435;-74
2022/06/06 08:58:40;;;;;;;12.83;12.23;;;28.10;90.30;;;;;;4989363;28;20439;-76
2022/06/06 09:01:23;;;;;;;13.50;12.80;;;29.30;84.40;;;;;;4990600;28;20482;-76
2022/06/06 09:04:15;;;;;;;13.60;12.90;;;30.30;78.50;;;;;;4988309;28;20447;-76
2022/06/06 09:07:15;;;;;;;14.07;13.37;;;30.80;76.40;;;;;;4989332;28;20447;-75
2022/06/06 09:10:20;;;;;;;13.37;12.87;;;31.60;74.40;;;;;;4990095;28;20443;-75
2022/06/06 09:13:31;;;;;;;13.03;12.53;;;32.20;70.30;;;;;;4990262;28;20451;-75
2022/06/06 09:16:29;;;;;;;13.80;12.97;;;32.60;69.50;;;;;;4989400;28;20442;-76
2022/06/06 09:19:32;;;;;;;13.67;12.97;;;32.80;66.60;;;;;;4988454;28;20447;-73
2022/06/06 09:22:16;;;;;;;13.33;12.63;;;31.50;68.20;;;;;;4984752;28;20505;-74
2022/06/06 09:25:22;;;;;;;12.73;12.13;;;31.30;67.70;;;;;;4991297;28;20466;-75
2022/06/06 09:28:45;;;;;;;13.00;12.50;;;31.80;65.80;;;;;;4991169;28;20442;-75
2022/06/06 09:31:36;;;;;;;13.60;13.00;;;31.00;68.80;;;;;;4918005;29;21038;-74
2022/06/06 09:34:26;;;;;;;13.10;12.50;;;29.70;70.40;;;;;;4928728;29;20470;-75
2022/06/06 09:37:05;;;;;;;13.37;12.77;;;29.20;71.20;;;;;;4970656;28;20485;-74
2022/06/06 09:39:36;;;;;;;12.20;11.80;;;29.10;70.90;;;;;;4987834;28;20812;-74
2022/06/06 09:42:15;;;;;;;12.53;12.13;;;30.40;66.80;;;;;;4990110;28;20450;-74
2022/06/06 09:45:17;;;;;;;13.43;12.73;;;30.90;63.90;;;;;;4989051;28;20860;-74
2022/06/06 09:48:09;;;;;;;12.80;12.30;;;32.30;61.80;;;;;;4923214;28;20454;-74
2022/06/06 09:50:53;;;;;;;13.37;12.87;;;33.40;58.90;;;;;;4988613;28;20478;-74
2022/06/06 09:59:01;;;;;;;13.03;12.53;;;33.60;56.70;;;;;;4988773;28;20447;-75
2022/06/06 10:00:09;;;;;;;12.30;11.80;;;32.60;58.40;;;;;;4987460;28;20477;-74
2022/06/06 10:03:12;;;;;;;12.60;12.00;;;31.50;59.00;;;;;;4992400;28;20501;-74
2022/06/06 10:06:20;;;;;;;13.00;12.43;;;31.20;60.10;;;;;;4993080;28;20533;-74
2022/06/06 10:09:19;;;;;;;13.93;12.97;;;31.90;58.40;;;;;;4991438;28;20446;-74
2022/06/06 10:12:17;;;;;;;12.37;11.87;;;32.40;58.50;;;;;;4991467;28;20490;-74
2022/06/06 10:14:57;;;;;;;12.73;12.33;;;32.50;54.70;;;;;;4990951;28;20473;-74
2022/06/06 10:17:40;;;;;;;12.47;12.07;;;31.30;57.00;;;;;;4990853;28;20449;-75
2022/06/06 10:20:18;;;;;;;13.07;12.47;;;30.50;59.60;;;;;;4991248;28;20446;-75
2022/06/06 10:23:11;;;;;;;12.30;11.80;;;30.60;60.20;;;;;;4990845;28;20449;-74
2022/06/06 10:26:11;;;;;;;12.20;11.60;;;29.50;60.10;;;;;;4992579;28;20461;-74
2022/06/06 10:29:07;;;;;;;13.67;13.07;;;29.00;63.20;;;;;;4983303;28;20458;-74
2022/06/06 10:31:55;;;;;;;12.53;12.03;;;30.00;61.70;;;;;;4991656;28;20478;-75
2022/06/06 10:34:44;;;;;;;12.70;12.20;;;31.90;57.10;;;;;;4993512;28;20537;-74
2022/06/06 10:37:28;;;;;;;13.40;12.90;;;32.70;56.60;;;;;;4992079;28;20494;-74
2022/06/06 10:40:11;;;;;;;13.63;13.13;;;33.70;55.10;;;;;;4992690;28;20501;-74
2022/06/06 10:42:57;;;;;;;15.70;15.07;;;33.70;55.20;;;;;;4990413;28;20458;-74
2022/06/06 10:45:32;;;;;;;13.60;13.10;;;34.00;52.90;;;;;;4992157;28;20442;-72
2022/06/06 10:48:17;;;;;;;16.23;15.53;;;35.20;52.80;;;;;;4994134;28;20465;-74
2022/06/06 10:54:31;;;;;;;15.00;14.30;;;34.50;52.10;;;;;;4993781;28;20469;-73
2022/06/06 10:57:25;;;;;;;13.23;12.73;;;33.60;53.70;;;;;;4993814;28;20450;-73
2022/06/06 11:00:20;;;;;;;13.67;13.17;;;32.60;54.40;;;;;;4994236;28;20438;-73
2022/06/06 11:03:26;;;;;;;14.40;13.70;;;30.70;57.90;;;;;;4993747;28;20812;-72
2022/06/06 11:06:28;;;;;;;14.80;14.10;;;30.40;60.00;;;;;;4993971;28;20455;-72
2022/06/06 11:09:31;;;;;;;14.00;13.40;;;31.00;58.80;;;;;;4993426;28;20450;-72
2022/06/06 11:12:31;;;;;;;13.70;13.10;;;31.40;57.60;;;;;;4993308;28;20427;-72
2022/06/06 11:15:00;;;;;;;14.53;13.77;;;32.00;56.70;;;;;;4992863;28;20477;-73
2022/06/06 11:17:48;;;;;;;13.50;12.87;;;32.60;53.90;;;;;;4992986;28;20459;-72
2022/06/06 11:20:54;;;;;;;14.23;13.67;;;33.20;53.50;;;;;;4992776;28;20478;-72
2022/06/06 11:23:25;;;;;;;14.67;14.07;;;33.30;52.90;;;;;;4992977;28;20450;-71
2022/06/06 11:26:20;;;;;;;14.50;13.90;;;32.80;54.90;;;;;;4993711;28;20446;-72
2022/06/06 11:29:07;;;;;;;15.63;14.93;;;31.60;54.70;;;;;;4992595;28;20451;-71
2022/06/06 11:31:48;;;;;;;15.97;15.27;;;31.50;55.70;;;;;;4992836;28;20450;-72
2022/06/06 11:34:57;;;;;;;13.47;12.97;;;31.20;56.70;;;;;;4992758;28;20471;-72
2022/06/06 11:38:03;;;;;;;13.37;12.87;;;30.80;56.70;;;;;;4992977;28;20902;-72
2022/06/06 11:41:04;;;;;;;14.50;13.90;;;30.40;57.70;;;;;;4992652;28;20626;-72
2022/06/06 11:44:08;;;;;;;11.80;11.40;;;30.10;58.60;;;;;;4979536;28;20550;-72
2022/06/06 11:47:08;;;;;;;13.50;12.90;;;29.90;59.70;;;;;;4992712;28;20462;-73
2022/06/06 11:50:08;;;;;;;13.57;13.07;;;29.80;60.70;;;;;;4992679;28;20814;-72
2022/06/06 11:53:08;;;;;;;13.50;12.97;;;30.00;59.80;;;;;;4992660;28;20451;-72
2022/06/06 11:55:49;;;;;;;13.50;13.00;;;29.80;58.60;;;;;;4992589;28;20458;-72
2022/06/06 11:58:48;;;;;;;13.93;13.33;;;29.80;59.40;;;;;;4992068;28;20451;-73
2022/06/06 12:01:51;;;;;;;13.27;12.83;;;29.70;59.70;;;;;;4992093;28;20586;-71
2022/06/06 12:04:48;;;;;;;13.40;12.80;;;29.00;60.50;;;;;;4990089;28;20789;-72
2022/06/06 12:07:56;;;;;;;13.50;12.90;;;28.80;60.60;;;;;;4991990;28;20454;-72
2022/06/06 12:10:25;;;;;;;13.03;12.43;;;28.90;61.50;;;;;;4972277;28;20462;-72
2022/06/06 12:13:24;;;;;;;13.60;13.00;;;29.20;61.00;;;;;;4992264;28;20513;-72
2022/06/06 12:16:02;;;;;;;13.57;13.03;;;29.30;60.90;;;;;;4992187;28;20451;-72
2022/06/06 12:18:51;;;;;;;12.90;12.40;;;29.50;61.50;;;;;;4991935;28;20453;-72
2022/06/06 12:21:42;;;;;;;12.90;12.30;;;29.40;61.20;;;;;;4992019;28;20479;-72
2022/06/06 12:24:27;;;;;;;14.07;13.30;;;28.80;62.70;;;;;;4992155;28;20945;-71
2022/06/06 12:27:14;;;;;;;12.63;12.10;;;28.10;63.50;;;;;;4991777;28;20454;-72
2022/06/06 12:30:01;;;;;;;12.63;12.13;;;27.60;64.30;;;;;;4991980;28;20479;-71
2022/06/06 12:32:46;;;;;;;11.83;11.43;;;27.20;66.40;;;;;;4992158;28;20450;-71
2022/06/06 12:35:21;;;;;;;13.77;13.17;;;27.30;66.80;;;;;;4991454;28;20466;-72
2022/06/06 12:38:05;;;;;;;13.00;12.40;;;27.50;65.00;;;;;;4991605;28;20533;-71
2022/06/06 12:44:05;;;;;;;12.80;12.37;;;30.60;59.90;;;;;;4964476;28;20535;-73
2022/06/06 12:46:58;;;;;;;15.07;14.33;;;32.50;54.70;;;;;;4977300;28;20451;-73
2022/06/06 12:49:49;;;;;;;13.83;13.23;;;33.60;52.00;;;;;;4991095;28;20451;-73
2022/06/06 12:52:36;;;;;;;13.33;12.83;;;33.20;52.40;;;;;;4982752;28;20526;-74
2022/06/06 12:55:34;;;;;;;12.87;12.37;;;32.50;52.20;;;;;;4990976;28;20457;-73
2022/06/06 12:58:25;;;;;;;13.30;12.80;;;32.60;52.30;;;;;;4990943;28;20451;-73
2022/06/06 13:03:53;;;;;;;14.00;13.47;;;34.70;49.70;;;;;;4991026;28;20780;-75
2022/06/06 13:06:30;;;;;;;13.40;12.90;;;34.70;48.30;;;;;;4991066;28;20451;-73
2022/06/06 13:09:12;;;;;;;13.40;12.80;;;33.10;49.60;;;;;;4990796;28;20450;-74
2022/06/06 13:12:02;;;;;;;13.33;12.73;;;33.10;50.30;;;;;;4990946;28;20458;-74
2022/06/06 13:14:51;;;;;;;13.00;12.50;;;33.00;49.60;;;;;;4990725;28;20466;-74
2022/06/06 13:17:26;;;;;;;13.20;12.70;;;32.50;50.30;;;;;;4990798;28;20542;-74
2022/06/06 13:20:09;;;;;;;12.70;12.10;;;32.10;51.70;;;;;;4990781;28;20447;-74
2022/06/06 13:23:07;;;;;;;12.83;12.33;;;31.40;52.90;;;;;;4990941;28;20513;-74
2022/06/06 13:25:45;;;;;;;12.60;12.10;;;29.60;54.90;;;;;;4980698;28;20948;-74
2022/06/06 13:28:20;;;;;;;12.97;12.37;;;28.80;57.30;;;;;;4990649;28;20454;-74
2022/06/06 13:31:18;;;;;;;12.83;12.33;;;28.20;58.10;;;;;;4990683;28;20454;-74
2022/06/06 13:33:57;;;;;;;12.30;11.80;;;27.50;59.40;;;;;;4990856;28;20969;-74
2022/06/06 13:36:51;;;;;;;11.63;11.13;;;26.80;61.00;;;;;;4992199;28;20521;-74
2022/06/06 13:39:31;;;;;;;10.73;10.30;;;26.50;62.70;;;;;;4994689;28;20489;-74
2022/06/06 13:42:05;;;;;;;12.50;11.90;;;26.40;64.50;;;;;;4994492;28;21038;-74
2022/06/06 13:45:01;;;;;;;12.33;11.83;;;26.30;66.00;;;;;;4994663;28;20451;-74
2022/06/06 13:47:55;;;;;;;11.63;11.23;;;25.90;67.70;;;;;;4994425;28;20992;-74
2022/06/06 13:50:27;;;;;;;11.90;11.40;;;25.60;67.90;;;;;;4995000;28;20462;-73
2022/06/06 13:53:12;;;;;;;12.00;11.50;;;25.30;66.90;;;;;;4994596;28;20929;-74
2022/06/06 13:55:41;;;;;;;11.80;11.30;;;25.00;66.40;;;;;;4994405;28;20451;-73
2022/06/06 13:58:25;;;;;;;11.87;11.37;;;25.00;66.00;;;;;;4994754;28;20811;-73
2022/06/06 14:01:05;;;;;;;12.33;11.63;;;24.90;67.20;;;;;;4994345;28;20461;-74
2022/06/06 14:03:44;;;;;;;12.73;12.23;;;24.80;67.60;;;;;;4994271;28;20450;-74
2022/06/06 14:06:40;;;;;;;11.67;11.27;;;25.00;67.90;;;;;;4994196;28;20459;-74
2022/06/06 14:09:07;;;;;;;13.10;12.50;;;25.20;67.40;;;;;;4994339;28;20463;-74
2022/06/06 14:11:56;;;;;;;11.40;11.00;;;25.20;67.90;;;;;;4993705;28;20450;-74